Time;durP1;ratioP1;P1;durP2;ratioP2;P2;SDS_P1;SDS_P2;PMS_P1;PMS_P2;Temp;Humidity;BMP_temperature;BMP_pressure;BME280_temperature;BME280_humidity;BME280_pressure;Samples;Min_cycle;Max_cycle;Signal;HPM_P1;HPM_P2
2023/02/24 18:17:09;;;;;;;;;;;;;;;7.50;62.64;96614.56;6209127;22;19931;-62
2023/02/24 18:19:34;;;;;;;;;;;;;;;7.44;63.26;96615.09;6186736;23;19920;-63
2023/02/24 18:21:59;;;;;;;;;;;;;;;7.43;63.59;96623.84;6186717;23;19912;-63
2023/02/24 18:24:25;;;;;;;;;;;;;;;7.43;62.30;96610.78;6213859;23;19919;-60
2023/02/24 18:26:50;;;;;;;;;;;;;;;7.36;62.85;96613.94;6212908;23;19919;-58
2023/02/24 18:29:15;;;;;;;;;;;;;;;7.34;63.10;96610.59;6211298;23;19912;-63
2023/02/24 18:31:40;;;;;;;;;;;;;;;7.33;62.92;96608.94;6211970;23;19908;-60
2023/02/24 18:34:05;;;;;;;;;;;;;;;7.38;62.06;96614.63;6214774;23;19908;-63
2023/02/24 18:36:31;;;;;;;;;;;;;;;7.32;61.72;96612.50;6214009;23;19912;-61
2023/02/24 18:38:56;;;;;;;;;;;;;;;7.33;61.89;96602.91;6214661;23;19919;-63
2023/02/24 18:41:22;;;;;;;;;;;;;;;7.24;61.79;96608.88;6213885;23;19913;-61
2023/02/24 18:43:48;;;;;;;;;;;;;;;7.23;61.09;96610.66;6187335;23;19908;-61
2023/02/24 18:46:13;;;;;;;;;;;;;;;7.20;61.77;96617.88;6213258;23;19966;-61
2023/02/24 18:48:43;;;;;;;;;;;;;;;7.22;62.00;96615.97;6214447;23;19915;-59
2023/02/24 18:51:08;;;;;;;;;;;;;;;7.16;61.95;96612.09;6187223;23;20323;-62
2023/02/24 18:53:35;;;;;;;;;;;;;;;7.14;62.10;96608.75;6214196;23;19916;-61
2023/02/24 18:56:05;;;;;;;;;;;;;;;7.12;62.34;96614.13;6214121;23;19907;-62
2023/02/24 18:58:30;;;;;;;;;;;;;;;7.10;61.57;96608.19;6188170;23;19946;-62
2023/02/24 19:00:55;;;;;;;;;;;;;;;7.11;62.34;96614.22;6213366;23;19966;-62
2023/02/24 19:03:21;;;;;;;;;;;;;;;7.09;62.17;96616.16;6214076;23;19908;-62
2023/02/24 19:05:46;;;;;;;;;;;;;;;7.04;62.22;96616.50;6213844;23;20295;-62
2023/02/24 19:08:11;;;;;;;;;;;;;;;7.04;62.38;96620.88;6215027;23;19982;-63
2023/02/24 19:10:39;;;;;;;;;;;;;;;7.07;61.78;96633.66;6213779;23;20243;-61
2023/02/24 19:13:04;;;;;;;;;;;;;;;7.02;61.74;96635.78;6213839;23;19990;-62
2023/02/24 19:15:29;;;;;;;;;;;;;;;7.01;61.58;96629.75;6213497;23;19950;-62
2023/02/24 19:17:54;;;;;;;;;;;;;;;6.97;61.79;96628.34;6214268;23;19903;-62
2023/02/24 19:20:19;;;;;;;;;;;;;;;6.95;62.42;96630.28;6213840;23;19919;-63
2023/02/24 19:22:45;;;;;;;;;;;;;;;6.99;61.99;96625.63;6213930;23;19995;-63
2023/02/24 19:25:10;;;;;;;;;;;;;;;6.95;62.27;96625.06;6213086;23;19936;-63
2023/02/24 19:27:35;;;;;;;;;;;;;;;6.90;61.84;96633.22;6212984;23;19908;-62
2023/02/24 19:30:01;;;;;;;;;;;;;;;6.84;62.11;96635.47;6213831;23;19991;-62
2023/02/24 19:32:26;;;;;;;;;;;;;;;6.84;62.68;96631.09;6186264;23;19943;-62
2023/02/24 19:34:51;;;;;;;;;;;;;;;6.72;63.38;96634.66;6212065;23;19908;-61
2023/02/24 19:37:17;;;;;;;;;;;;;;;6.69;64.25;96645.31;6212869;23;19914;-63
2023/02/24 19:39:42;;;;;;;;;;;;;;;6.63;64.76;96645.78;6187469;23;19907;-63
2023/02/24 19:42:07;;;;;;;;;;;;;;;6.56;65.81;96650.66;6213374;23;20468;-62
2023/02/24 19:44:32;;;;;;;;;;;;;;;6.45;67.01;96662.84;6213647;23;20371;-62
2023/02/24 19:46:58;;;;;;;;;;;;;;;6.25;67.40;96669.56;6213051;23;19916;-63
2023/02/24 19:49:23;;;;;;;;;;;;;;;6.07;69.51;96674.38;6213737;23;19974;-62
2023/02/24 19:51:51;;;;;;;;;;;;;;;5.81;72.23;96663.25;6212995;23;19908;-62
2023/02/24 19:54:17;;;;;;;;;;;;;;;7.52;74.98;96672.69;6213717;23;19938;-64
2023/02/24 19:56:43;;;;;;;;;;;;;;;6.91;71.06;96670.53;6210514;23;19912;-64
2023/02/24 19:59:08;;;;;;;;;;;;;;;6.34;74.28;96677.50;6185345;23;19907;-64
2023/02/24 20:01:33;;;;;;;;;;;;;;;6.08;75.73;96692.47;6185605;23;19915;-63
2023/02/24 20:03:59;;;;;;;;;;;;;;;5.78;76.91;96692.97;6214140;23;20287;-64
2023/02/24 20:06:29;;;;;;;;;;;;;;;5.64;77.13;96693.09;6185835;23;20220;-63
2023/02/24 20:08:54;;;;;;;;;;;;;;;5.32;79.69;96687.63;6185549;23;19982;-63
2023/02/24 20:11:20;;;;;;;;;;;;;;;5.11;79.57;96690.81;6213365;23;19935;-63
2023/02/24 20:13:45;;;;;;;;;;;;;;;5.08;79.14;96695.41;6186134;23;19908;-64
2023/02/24 20:16:11;;;;;;;;;;;;;;;4.91;78.79;96713.00;6213780;23;20386;-64
2023/02/24 20:18:36;;;;;;;;;;;;;;;4.67;79.35;96701.72;6186001;23;19970;-64
2023/02/24 20:21:01;;;;;;;;;;;;;;;4.61;79.08;96702.13;6212299;23;20369;-63
2023/02/24 20:23:27;;;;;;;;;;;;;;;4.46;79.87;96715.22;6213250;23;19958;-64
2023/02/24 20:25:52;;;;;;;;;;;;;;;4.43;79.06;96723.22;6213877;23;19908;-63
2023/02/24 20:28:20;;;;;;;;;;;;;;;4.32;79.02;96723.09;6163797;23;19912;-63
2023/02/24 20:30:45;;;;;;;;;;;;;;;4.10;80.45;96713.34;6213767;23;19908;-64
2023/02/24 20:33:10;;;;;;;;;;;;;;;4.02;80.84;96715.59;6187715;23;20006;-64
2023/02/24 20:35:38;;;;;;;;;;;;;;;3.84;82.13;96709.84;6215824;23;19907;-63
2023/02/24 20:38:03;;;;;;;;;;;;;;;3.79;82.10;96709.34;6213788;23;20156;-62
2023/02/24 20:40:31;;;;;;;;;;;;;;;3.75;82.36;96723.41;6188425;23;19968;-63
2023/02/24 20:42:56;;;;;;;;;;;;;;;3.67;82.46;96721.31;6213851;23;19912;-62
2023/02/24 20:45:22;;;;;;;;;;;;;;;3.58;83.02;96721.91;6213757;23;19918;-63
2023/02/24 20:47:47;;;;;;;;;;;;;;;3.53;82.80;96709.22;6213907;23;19991;-62
2023/02/24 20:50:13;;;;;;;;;;;;;;;3.42;82.89;96716.88;6215856;23;19908;-63
2023/02/24 20:52:39;;;;;;;;;;;;;;;3.35;82.59;96713.00;6214629;23;20340;-62
2023/02/24 20:55:04;;;;;;;;;;;;;;;3.34;83.65;96713.94;6215502;23;19919;-63
2023/02/24 20:57:29;;;;;;;;;;;;;;;3.38;83.85;96715.41;6214159;23;19908;-63
2023/02/24 20:59:58;;;;;;;;;;;;;;;3.40;83.73;96723.06;6215669;23;19915;-61
2023/02/24 21:02:23;;;;;;;;;;;;;;;3.28;83.20;96720.34;6215359;23;19936;-62
2023/02/24 21:04:48;;;;;;;;;;;;;;;3.24;84.77;96713.69;6213783;23;19919;-63
2023/02/24 21:07:13;;;;;;;;;;;;;;;3.27;85.05;96717.84;6213183;23;19912;-62
2023/02/24 21:09:39;;;;;;;;;;;;;;;3.31;84.11;96716.72;6215199;23;19915;-62
2023/02/24 21:12:04;;;;;;;;;;;;;;;3.37;83.61;96713.72;6215779;23;19912;-63
2023/02/24 21:14:29;;;;;;;;;;;;;;;3.29;84.02;96706.44;6187716;23;19908;-64
2023/02/24 21:16:54;;;;;;;;;;;;;;;3.36;84.10;96706.88;6187010;23;19912;-63
2023/02/24 21:19:21;;;;;;;;;;;;;;;3.40;83.58;96700.56;6212908;23;20281;-63
2023/02/24 21:21:47;;;;;;;;;;;;;;;3.37;84.66;96703.34;6212985;23;20319;-63
2023/02/24 21:24:12;;;;;;;;;;;;;;;3.38;84.48;96705.03;6215767;23;19912;-63
2023/02/24 21:26:37;;;;;;;;;;;;;;;3.38;83.74;96699.84;6214992;23;19935;-62
2023/02/24 21:29:03;;;;;;;;;;;;;;;3.38;84.02;96699.84;6187569;23;20003;-63
2023/02/24 21:31:28;;;;;;;;;;;;;;;3.38;83.71;96702.44;6186347;23;19936;-62
2023/02/24 21:33:53;;;;;;;;;;;;;;;3.24;83.80;96699.91;6216154;23;20247;-63
2023/02/24 21:36:19;;;;;;;;;;;;;;;3.21;84.57;96695.72;6187612;23;20243;-62
2023/02/24 21:38:45;;;;;;;;;;;;;;;3.29;85.47;96690.88;6188728;23;19912;-64
2023/02/24 21:41:12;;;;;;;;;;;;;;;3.29;84.44;96687.47;6186401;23;20351;-63
2023/02/24 21:43:37;;;;;;;;;;;;;;;3.21;84.47;96694.91;6163242;23;19916;-64
2023/02/24 21:46:04;;;;;;;;;;;;;;;3.22;85.00;96694.81;6188177;23;19978;-63
2023/02/24 21:48:29;;;;;;;;;;;;;;;3.26;84.38;96690.25;6188792;23;20324;-63
2023/02/24 21:51:02;;;;;;;;;;;;;;;3.25;84.76;96689.44;6188176;23;19935;-63
2023/02/24 21:53:28;;;;;;;;;;;;;;;3.30;84.82;96687.38;6188736;23;19946;-63
2023/02/24 21:56:15;;;;;;;;;;;;;;;3.33;84.31;96691.53;6162844;23;20256;-63
2023/02/24 21:58:40;;;;;;;;;;;;;;;3.30;84.39;96687.38;6189819;23;19914;-63
2023/02/24 22:01:12;;;;;;;;;;;;;;;3.31;83.90;96693.41;6186193;23;20278;-63
2023/02/24 22:03:37;;;;;;;;;;;;;;;3.27;84.85;96692.75;6186085;23;19908;-63
2023/02/24 22:06:03;;;;;;;;;;;;;;;3.21;84.96;96695.72;6213871;23;19908;-64
2023/02/24 22:08:28;;;;;;;;;;;;;;;3.13;84.92;96692.78;6212990;23;19908;-63
2023/02/24 22:10:59;;;;;;;;;;;;;;;3.19;84.86;96694.16;6214178;23;19966;-63
2023/02/24 22:13:24;;;;;;;;;;;;;;;3.15;84.76;96687.50;6187179;23;19998;-63
2023/02/24 22:15:50;;;;;;;;;;;;;;;3.16;84.80;96697.78;6211729;23;19947;-63
2023/02/24 22:18:15;;;;;;;;;;;;;;;3.31;89.79;96688.22;6214843;23;19982;-63
2023/02/24 22:20:40;;;;;;;;;;;;;;;3.43;87.83;96690.00;6188289;23;19940;-63
